sensor_id;sensor_type;location;lat;lon;timestamp;temperature;humidity
3466;DHT22;1747;48.884;9.160;2023-11-19T00:01:01;8.80;99.90
3466;DHT22;1747;48.884;9.160;2023-11-19T00:03:31;8.80;99.90
3466;DHT22;1747;48.884;9.160;2023-11-19T00:05:59;8.80;99.90
3466;DHT22;1747;48.884;9.160;2023-11-19T00:11:47;8.90;99.90
3466;DHT22;1747;48.884;9.160;2023-11-19T00:14:15;8.90;99.90
3466;DHT22;1747;48.884;9.160;2023-11-19T00:16:42;8.90;99.90
3466;DHT22;1747;48.884;9.160;2023-11-19T00:19:09;9.00;99.90
3466;DHT22;1747;48.884;9.160;2023-11-19T00:21:36;9.20;99.90
3466;DHT22;1747;48.884;9.160;2023-11-19T00:24:03;9.40;99.90
3466;DHT22;1747;48.884;9.160;2023-11-19T00:26:30;9.60;99.90
3466;DHT22;1747;48.884;9.160;2023-11-19T00:28:57;9.80;99.90
3466;DHT22;1747;48.884;9.160;2023-11-19T00:31:25;10.00;99.90
3466;DHT22;1747;48.884;9.160;2023-11-19T00:33:53;10.10;99.90
3466;DHT22;1747;48.884;9.160;2023-11-19T00:36:20;10.20;99.90
3466;DHT22;1747;48.884;9.160;2023-11-19T00:38:49;10.20;99.90
3466;DHT22;1747;48.884;9.160;2023-11-19T00:41:18;10.20;99.90
3466;DHT22;1747;48.884;9.160;2023-11-19T00:43:45;10.20;99.90
3466;DHT22;1747;48.884;9.160;2023-11-19T00:46:12;10.30;99.90
3466;DHT22;1747;48.884;9.160;2023-11-19T00:48:40;10.30;99.90
3466;DHT22;1747;48.884;9.160;2023-11-19T00:51:07;10.40;99.90
3466;DHT22;1747;48.884;9.160;2023-11-19T00:53:34;10.40;99.90
3466;DHT22;1747;48.884;9.160;2023-11-19T00:56:01;10.50;99.90
3466;DHT22;1747;48.884;9.160;2023-11-19T00:58:27;10.50;99.90
3466;DHT22;1747;48.884;9.160;2023-11-19T01:00:55;10.50;99.90
3466;DHT22;1747;48.884;9.160;2023-11-19T01:03:22;10.50;99.90
3466;DHT22;1747;48.884;9.160;2023-11-19T01:05:51;10.50;99.90
3466;DHT22;1747;48.884;9.160;2023-11-19T01:08:18;10.60;99.90
3466;DHT22;1747;48.884;9.160;2023-11-19T01:10:44;10.60;99.90
3466;DHT22;1747;48.884;9.160;2023-11-19T01:13:11;10.60;99.90
3466;DHT22;1747;48.884;9.160;2023-11-19T01:15:38;10.70;99.90
3466;DHT22;1747;48.884;9.160;2023-11-19T01:18:06;10.70;99.90
3466;DHT22;1747;48.884;9.160;2023-11-19T01:20:34;10.60;99.90
3466;DHT22;1747;48.884;9.160;2023-11-19T01:23:02;10.70;99.90
3466;DHT22;1747;48.884;9.160;2023-11-19T01:25:29;10.70;99.90
3466;DHT22;1747;48.884;9.160;2023-11-19T01:27:56;10.70;99.90
3466;DHT22;1747;48.884;9.160;2023-11-19T01:30:24;10.80;99.90
3466;DHT22;1747;48.884;9.160;2023-11-19T01:32:51;10.80;99.90
3466;DHT22;1747;48.884;9.160;2023-11-19T01:35:18;10.80;99.90
3466;DHT22;1747;48.884;9.160;2023-11-19T01:37:45;10.80;99.90
3466;DHT22;1747;48.884;9.160;2023-11-19T01:40:13;10.80;99.90
3466;DHT22;1747;48.884;9.160;2023-11-19T01:42:41;10.90;99.90
3466;DHT22;1747;48.884;9.160;2023-11-19T01:45:08;10.90;99.90
3466;DHT22;1747;48.884;9.160;2023-11-19T01:47:35;10.90;99.90
3466;DHT22;1747;48.884;9.160;2023-11-19T01:50:03;10.90;99.90
3466;DHT22;1747;48.884;9.160;2023-11-19T01:52:34;10.80;99.90
3466;DHT22;1747;48.884;9.160;2023-11-19T01:55:04;10.90;99.90
3466;DHT22;1747;48.884;9.160;2023-11-19T01:57:32;10.90;99.90
3466;DHT22;1747;48.884;9.160;2023-11-19T01:59:59;10.90;99.90
3466;DHT22;1747;48.884;9.160;2023-11-19T02:02:27;11.00;99.90
3466;DHT22;1747;48.884;9.160;2023-11-19T02:04:54;11.00;99.90
3466;DHT22;1747;48.884;9.160;2023-11-19T02:07:21;11.00;99.90
3466;DHT22;1747;48.884;9.160;2023-11-19T02:09:48;11.10;99.90
3466;DHT22;1747;48.884;9.160;2023-11-19T02:12:15;11.20;99.90
3466;DHT22;1747;48.884;9.160;2023-11-19T02:14:43;11.10;99.90
3466;DHT22;1747;48.884;9.160;2023-11-19T02:17:25;11.10;99.90
3466;DHT22;1747;48.884;9.160;2023-11-19T02:19:52;11.10;99.90
3466;DHT22;1747;48.884;9.160;2023-11-19T02:22:19;11.10;99.90
3466;DHT22;1747;48.884;9.160;2023-11-19T02:24:47;11.10;99.90
3466;DHT22;1747;48.884;9.160;2023-11-19T02:27:21;11.00;99.90
3466;DHT22;1747;48.884;9.160;2023-11-19T02:29:55;11.00;99.90
3466;DHT22;1747;48.884;9.160;2023-11-19T02:32:23;11.00;99.90
3466;DHT22;1747;48.884;9.160;2023-11-19T02:34:53;10.90;99.90
3466;DHT22;1747;48.884;9.160;2023-11-19T02:37:21;10.80;99.90
3466;DHT22;1747;48.884;9.160;2023-11-19T02:39:47;10.80;99.90
3466;DHT22;1747;48.884;9.160;2023-11-19T02:42:14;10.80;99.90
3466;DHT22;1747;48.884;9.160;2023-11-19T02:44:44;10.80;99.90
3466;DHT22;1747;48.884;9.160;2023-11-19T02:47:12;10.90;99.90
3466;DHT22;1747;48.884;9.160;2023-11-19T02:49:39;10.80;99.90
3466;DHT22;1747;48.884;9.160;2023-11-19T02:52:06;10.80;99.90
3466;DHT22;1747;48.884;9.160;2023-11-19T02:54:36;10.90;99.90
3466;DHT22;1747;48.884;9.160;2023-11-19T02:57:03;11.00;99.90
3466;DHT22;1747;48.884;9.160;2023-11-19T02:59:39;11.00;99.90
3466;DHT22;1747;48.884;9.160;2023-11-19T03:02:09;11.10;99.90
3466;DHT22;1747;48.884;9.160;2023-11-19T03:04:44;11.10;99.90
3466;DHT22;1747;48.884;9.160;2023-11-19T03:07:31;11.10;99.90
3466;DHT22;1747;48.884;9.160;2023-11-19T03:10:05;11.00;99.90
3466;DHT22;1747;48.884;9.160;2023-11-19T03:16:14;10.90;99.90
3466;DHT22;1747;48.884;9.160;2023-11-19T03:18:42;10.90;99.90
3466;DHT22;1747;48.884;9.160;2023-11-19T03:21:10;10.80;99.90
3466;DHT22;1747;48.884;9.160;2023-11-19T03:23:37;10.80;99.90
3466;DHT22;1747;48.884;9.160;2023-11-19T03:26:05;10.80;99.90
3466;DHT22;1747;48.884;9.160;2023-11-19T03:28:33;10.70;99.90
3466;DHT22;1747;48.884;9.160;2023-11-19T03:31:00;10.70;99.90
3466;DHT22;1747;48.884;9.160;2023-11-19T03:33:27;10.80;99.90
3466;DHT22;1747;48.884;9.160;2023-11-19T03:35:54;10.70;99.90
3466;DHT22;1747;48.884;9.160;2023-11-19T03:38:36;10.70;99.90
3466;DHT22;1747;48.884;9.160;2023-11-19T03:41:10;10.70;99.90
3466;DHT22;1747;48.884;9.160;2023-11-19T03:43:37;10.60;99.90
3466;DHT22;1747;48.884;9.160;2023-11-19T03:46:04;10.60;99.90
3466;DHT22;1747;48.884;9.160;2023-11-19T03:48:31;10.70;99.90
3466;DHT22;1747;48.884;9.160;2023-11-19T03:50:58;10.70;99.90
3466;DHT22;1747;48.884;9.160;2023-11-19T03:53:25;10.70;99.90
3466;DHT22;1747;48.884;9.160;2023-11-19T03:55:53;10.80;99.90
3466;DHT22;1747;48.884;9.160;2023-11-19T03:58:20;10.80;99.90
3466;DHT22;1747;48.884;9.160;2023-11-19T04:00:46;11.00;99.90
3466;DHT22;1747;48.884;9.160;2023-11-19T04:03:14;10.90;99.90
3466;DHT22;1747;48.884;9.160;2023-11-19T04:05:41;10.80;99.90
3466;DHT22;1747;48.884;9.160;2023-11-19T04:08:08;10.80;99.90
3466;DHT22;1747;48.884;9.160;2023-11-19T04:10:35;10.70;99.90
3466;DHT22;1747;48.884;9.160;2023-11-19T04:13:03;10.80;99.90
3466;DHT22;1747;48.884;9.160;2023-11-19T04:15:30;10.80;99.90
3466;DHT22;1747;48.884;9.160;2023-11-19T04:17:57;10.80;99.90
3466;DHT22;1747;48.884;9.160;2023-11-19T04:20:24;10.80;99.90
3466;DHT22;1747;48.884;9.160;2023-11-19T04:22:51;10.90;99.90
3466;DHT22;1747;48.884;9.160;2023-11-19T04:25:19;10.90;99.90
3466;DHT22;1747;48.884;9.160;2023-11-19T04:27:46;10.90;99.90
3466;DHT22;1747;48.884;9.160;2023-11-19T04:30:15;10.80;99.90
3466;DHT22;1747;48.884;9.160;2023-11-19T04:32:42;10.80;99.90
3466;DHT22;1747;48.884;9.160;2023-11-19T04:35:09;10.70;99.90
3466;DHT22;1747;48.884;9.160;2023-11-19T04:37:36;10.70;99.90
3466;DHT22;1747;48.884;9.160;2023-11-19T04:40:04;10.70;99.90
3466;DHT22;1747;48.884;9.160;2023-11-19T04:42:31;10.80;99.90
3466;DHT22;1747;48.884;9.160;2023-11-19T04:44:58;10.70;99.90
3466;DHT22;1747;48.884;9.160;2023-11-19T04:47:50;10.80;99.90
3466;DHT22;1747;48.884;9.160;2023-11-19T04:50:17;10.80;99.90
3466;DHT22;1747;48.884;9.160;2023-11-19T04:52:44;10.80;99.90
3466;DHT22;1747;48.884;9.160;2023-11-19T04:55:12;10.80;99.90
3466;DHT22;1747;48.884;9.160;2023-11-19T04:57:39;10.80;99.90
3466;DHT22;1747;48.884;9.160;2023-11-19T05:00:07;10.80;99.90
3466;DHT22;1747;48.884;9.160;2023-11-19T05:02:35;10.90;99.90
3466;DHT22;1747;48.884;9.160;2023-11-19T05:05:04;11.10;99.90
3466;DHT22;1747;48.884;9.160;2023-11-19T05:07:32;11.30;99.90
3466;DHT22;1747;48.884;9.160;2023-11-19T05:09:59;11.30;99.90
3466;DHT22;1747;48.884;9.160;2023-11-19T05:12:26;11.40;99.90
3466;DHT22;1747;48.884;9.160;2023-11-19T05:14:53;11.50;99.90
3466;DHT22;1747;48.884;9.160;2023-11-19T05:17:20;11.50;99.90
3466;DHT22;1747;48.884;9.160;2023-11-19T05:19:46;11.60;99.90
3466;DHT22;1747;48.884;9.160;2023-11-19T05:22:15;11.80;99.90
3466;DHT22;1747;48.884;9.160;2023-11-19T05:24:42;11.90;99.90
3466;DHT22;1747;48.884;9.160;2023-11-19T05:27:09;12.00;99.90
3466;DHT22;1747;48.884;9.160;2023-11-19T05:29:36;12.00;99.90
3466;DHT22;1747;48.884;9.160;2023-11-19T05:32:04;12.00;99.90
3466;DHT22;1747;48.884;9.160;2023-11-19T05:34:32;12.10;99.90
3466;DHT22;1747;48.884;9.160;2023-11-19T05:36:59;12.00;99.90
3466;DHT22;1747;48.884;9.160;2023-11-19T05:39:28;12.10;99.90
3466;DHT22;1747;48.884;9.160;2023-11-19T05:41:55;12.10;99.90
3466;DHT22;1747;48.884;9.160;2023-11-19T05:44:21;12.10;99.90
3466;DHT22;1747;48.884;9.160;2023-11-19T05:46:48;12.10;99.90
3466;DHT22;1747;48.884;9.160;2023-11-19T05:49:15;12.10;99.90
3466;DHT22;1747;48.884;9.160;2023-11-19T05:51:42;12.10;99.90
3466;DHT22;1747;48.884;9.160;2023-11-19T05:54:09;12.10;99.90
3466;DHT22;1747;48.884;9.160;2023-11-19T05:56:37;12.10;99.90
3466;DHT22;1747;48.884;9.160;2023-11-19T05:59:04;12.10;99.90
3466;DHT22;1747;48.884;9.160;2023-11-19T06:01:34;12.10;99.90
3466;DHT22;1747;48.884;9.160;2023-11-19T06:04:02;12.10;99.90
3466;DHT22;1747;48.884;9.160;2023-11-19T06:06:29;12.00;99.90
3466;DHT22;1747;48.884;9.160;2023-11-19T06:08:55;12.10;99.90
3466;DHT22;1747;48.884;9.160;2023-11-19T06:11:22;12.10;99.90
3466;DHT22;1747;48.884;9.160;2023-11-19T06:13:53;12.10;99.90
3466;DHT22;1747;48.884;9.160;2023-11-19T06:16:20;12.10;99.90
3466;DHT22;1747;48.884;9.160;2023-11-19T06:18:47;12.20;99.90
3466;DHT22;1747;48.884;9.160;2023-11-19T06:21:14;12.30;99.90
3466;DHT22;1747;48.884;9.160;2023-11-19T06:23:41;12.40;99.90
3466;DHT22;1747;48.884;9.160;2023-11-19T06:26:08;12.40;99.90
3466;DHT22;1747;48.884;9.160;2023-11-19T06:28:35;12.50;99.90
3466;DHT22;1747;48.884;9.160;2023-11-19T06:31:04;12.40;99.90
3466;DHT22;1747;48.884;9.160;2023-11-19T06:33:31;12.50;99.90
3466;DHT22;1747;48.884;9.160;2023-11-19T06:35:59;12.50;99.90
3466;DHT22;1747;48.884;9.160;2023-11-19T06:38:26;12.50;99.90
3466;DHT22;1747;48.884;9.160;2023-11-19T06:40:52;12.40;99.90
3466;DHT22;1747;48.884;9.160;2023-11-19T06:43:19;12.50;99.90
3466;DHT22;1747;48.884;9.160;2023-11-19T06:45:46;12.50;99.90
3466;DHT22;1747;48.884;9.160;2023-11-19T06:48:14;12.50;99.90
3466;DHT22;1747;48.884;9.160;2023-11-19T06:50:41;12.50;99.90
3466;DHT22;1747;48.884;9.160;2023-11-19T06:53:08;12.60;99.90
3466;DHT22;1747;48.884;9.160;2023-11-19T06:55:36;12.60;99.90
3466;DHT22;1747;48.884;9.160;2023-11-19T06:58:02;12.60;99.90
3466;DHT22;1747;48.884;9.160;2023-11-19T07:00:29;12.60;99.90
3466;DHT22;1747;48.884;9.160;2023-11-19T07:02:58;12.60;99.90
3466;DHT22;1747;48.884;9.160;2023-11-19T07:05:26;12.60;99.90
3466;DHT22;1747;48.884;9.160;2023-11-19T07:07:53;12.60;99.90
3466;DHT22;1747;48.884;9.160;2023-11-19T07:10:21;12.60;99.90
3466;DHT22;1747;48.884;9.160;2023-11-19T07:12:48;12.60;99.90
3466;DHT22;1747;48.884;9.160;2023-11-19T07:15:16;12.60;99.90
3466;DHT22;1747;48.884;9.160;2023-11-19T07:17:44;12.70;99.90
3466;DHT22;1747;48.884;9.160;2023-11-19T07:20:11;12.70;99.90
3466;DHT22;1747;48.884;9.160;2023-11-19T07:22:43;12.80;99.90
3466;DHT22;1747;48.884;9.160;2023-11-19T07:25:12;12.80;99.90
3466;DHT22;1747;48.884;9.160;2023-11-19T07:27:39;12.80;99.90
3466;DHT22;1747;48.884;9.160;2023-11-19T07:30:06;12.80;99.90
3466;DHT22;1747;48.884;9.160;2023-11-19T07:32:33;12.70;99.90
3466;DHT22;1747;48.884;9.160;2023-11-19T07:35:00;12.70;99.90
3466;DHT22;1747;48.884;9.160;2023-11-19T07:37:27;12.80;99.90
3466;DHT22;1747;48.884;9.160;2023-11-19T07:39:56;12.80;99.90
3466;DHT22;1747;48.884;9.160;2023-11-19T07:42:22;12.90;99.90
3466;DHT22;1747;48.884;9.160;2023-11-19T07:44:49;12.90;99.90
3466;DHT22;1747;48.884;9.160;2023-11-19T07:47:16;13.00;99.90
3466;DHT22;1747;48.884;9.160;2023-11-19T07:49:43;13.00;99.90
3466;DHT22;1747;48.884;9.160;2023-11-19T07:52:10;13.10;99.90
3466;DHT22;1747;48.884;9.160;2023-11-19T07:54:37;13.10;99.90
3466;DHT22;1747;48.884;9.160;2023-11-19T07:57:05;13.10;99.90
3466;DHT22;1747;48.884;9.160;2023-11-19T07:59:32;13.20;99.90
3466;DHT22;1747;48.884;9.160;2023-11-19T08:01:59;13.20;99.90
3466;DHT22;1747;48.884;9.160;2023-11-19T08:04:29;13.20;99.90
3466;DHT22;1747;48.884;9.160;2023-11-19T08:06:56;13.30;99.90
3466;DHT22;1747;48.884;9.160;2023-11-19T08:09:23;13.20;99.90
3466;DHT22;1747;48.884;9.160;2023-11-19T08:11:50;13.30;99.90
3466;DHT22;1747;48.884;9.160;2023-11-19T08:14:18;13.30;99.90
3466;DHT22;1747;48.884;9.160;2023-11-19T08:16:45;13.40;99.90
3466;DHT22;1747;48.884;9.160;2023-11-19T08:19:11;13.40;99.90
3466;DHT22;1747;48.884;9.160;2023-11-19T08:21:38;13.40;99.90
3466;DHT22;1747;48.884;9.160;2023-11-19T08:24:05;13.40;99.90
3466;DHT22;1747;48.884;9.160;2023-11-19T08:26:32;13.50;99.90
3466;DHT22;1747;48.884;9.160;2023-11-19T08:28:59;13.50;99.90
3466;DHT22;1747;48.884;9.160;2023-11-19T08:31:27;13.70;99.90
3466;DHT22;1747;48.884;9.160;2023-11-19T08:33:54;13.70;99.90
3466;DHT22;1747;48.884;9.160;2023-11-19T08:36:21;13.70;99.90
3466;DHT22;1747;48.884;9.160;2023-11-19T08:38:48;13.70;99.90
3466;DHT22;1747;48.884;9.160;2023-11-19T08:41:15;13.70;99.90
3466;DHT22;1747;48.884;9.160;2023-11-19T08:43:43;13.70;99.90
3466;DHT22;1747;48.884;9.160;2023-11-19T08:46:10;13.60;99.90
3466;DHT22;1747;48.884;9.160;2023-11-19T08:48:38;13.50;99.90
3466;DHT22;1747;48.884;9.160;2023-11-19T08:51:06;13.50;99.90
3466;DHT22;1747;48.884;9.160;2023-11-19T08:53:33;13.60;99.90
3466;DHT22;1747;48.884;9.160;2023-11-19T08:56:00;13.60;99.90
3466;DHT22;1747;48.884;9.160;2023-11-19T08:58:28;13.70;99.90
3466;DHT22;1747;48.884;9.160;2023-11-19T09:00:56;13.80;99.90
3466;DHT22;1747;48.884;9.160;2023-11-19T09:03:23;13.70;99.90
3466;DHT22;1747;48.884;9.160;2023-11-19T09:05:53;13.80;99.90
3466;DHT22;1747;48.884;9.160;2023-11-19T09:08:20;13.90;99.90
3466;DHT22;1747;48.884;9.160;2023-11-19T09:10:47;14.10;99.90
3466;DHT22;1747;48.884;9.160;2023-11-19T09:13:13;14.30;99.90
3466;DHT22;1747;48.884;9.160;2023-11-19T09:15:40;14.40;99.90
3466;DHT22;1747;48.884;9.160;2023-11-19T09:18:07;14.60;99.90
3466;DHT22;1747;48.884;9.160;2023-11-19T09:20:34;14.60;99.90
3466;DHT22;1747;48.884;9.160;2023-11-19T09:23:05;14.60;99.90
3466;DHT22;1747;48.884;9.160;2023-11-19T09:25:34;14.50;99.90
3466;DHT22;1747;48.884;9.160;2023-11-19T09:28:01;14.50;99.90
3466;DHT22;1747;48.884;9.160;2023-11-19T09:30:28;14.50;99.90
3466;DHT22;1747;48.884;9.160;2023-11-19T09:32:54;14.60;99.90
3466;DHT22;1747;48.884;9.160;2023-11-19T09:35:21;14.60;99.90
3466;DHT22;1747;48.884;9.160;2023-11-19T09:37:48;14.60;99.90
3466;DHT22;1747;48.884;9.160;2023-11-19T09:40:17;14.60;99.90
3466;DHT22;1747;48.884;9.160;2023-11-19T09:42:46;14.60;99.90
3466;DHT22;1747;48.884;9.160;2023-11-19T09:45:15;14.60;99.90
3466;DHT22;1747;48.884;9.160;2023-11-19T09:47:44;14.60;99.90
3466;DHT22;1747;48.884;9.160;2023-11-19T09:50:14;14.70;99.90
3466;DHT22;1747;48.884;9.160;2023-11-19T09:52:41;14.80;99.90
3466;DHT22;1747;48.884;9.160;2023-11-19T09:55:09;14.90;99.90
3466;DHT22;1747;48.884;9.160;2023-11-19T09:57:38;15.00;99.90
3466;DHT22;1747;48.884;9.160;2023-11-19T10:00:07;15.20;99.90
3466;DHT22;1747;48.884;9.160;2023-11-19T10:02:36;15.40;99.90
3466;DHT22;1747;48.884;9.160;2023-11-19T10:05:06;15.60;99.90
3466;DHT22;1747;48.884;9.160;2023-11-19T10:07:34;15.70;99.90
3466;DHT22;1747;48.884;9.160;2023-11-19T10:10:01;15.70;99.90
3466;DHT22;1747;48.884;9.160;2023-11-19T10:12:29;15.70;99.90
3466;DHT22;1747;48.884;9.160;2023-11-19T10:14:58;15.70;99.90
3466;DHT22;1747;48.884;9.160;2023-11-19T10:17:29;15.60;99.90
3466;DHT22;1747;48.884;9.160;2023-11-19T10:19:59;15.60;99.90
3466;DHT22;1747;48.884;9.160;2023-11-19T10:22:27;15.50;99.90
3466;DHT22;1747;48.884;9.160;2023-11-19T10:24:54;15.60;99.90
3466;DHT22;1747;48.884;9.160;2023-11-19T10:27:24;15.70;99.90
3466;DHT22;1747;48.884;9.160;2023-11-19T10:29:50;15.90;99.90
3466;DHT22;1747;48.884;9.160;2023-11-19T10:32:19;15.90;99.90
3466;DHT22;1747;48.884;9.160;2023-11-19T10:34:46;15.90;99.90
3466;DHT22;1747;48.884;9.160;2023-11-19T10:37:27;15.90;99.90
3466;DHT22;1747;48.884;9.160;2023-11-19T10:39:55;15.90;99.90
3466;DHT22;1747;48.884;9.160;2023-11-19T10:42:22;15.90;99.90
3466;DHT22;1747;48.884;9.160;2023-11-19T10:44:49;16.00;99.90
3466;DHT22;1747;48.884;9.160;2023-11-19T10:47:20;16.10;99.90
3466;DHT22;1747;48.884;9.160;2023-11-19T10:49:49;16.20;99.90
3466;DHT22;1747;48.884;9.160;2023-11-19T10:52:18;16.10;99.90
3466;DHT22;1747;48.884;9.160;2023-11-19T10:54:49;16.10;99.90
3466;DHT22;1747;48.884;9.160;2023-11-19T10:57:20;16.10;99.90
3466;DHT22;1747;48.884;9.160;2023-11-19T10:59:47;16.10;99.90
3466;DHT22;1747;48.884;9.160;2023-11-19T11:02:21;16.10;99.90
3466;DHT22;1747;48.884;9.160;2023-11-19T11:04:50;16.10;99.90
3466;DHT22;1747;48.884;9.160;2023-11-19T11:07:19;16.00;99.90
3466;DHT22;1747;48.884;9.160;2023-11-19T11:09:48;16.00;99.90
3466;DHT22;1747;48.884;9.160;2023-11-19T11:12:16;16.00;99.90
3466;DHT22;1747;48.884;9.160;2023-11-19T11:14:44;16.00;99.90
3466;DHT22;1747;48.884;9.160;2023-11-19T11:17:15;16.00;99.90
3466;DHT22;1747;48.884;9.160;2023-11-19T11:19:45;16.10;99.90
3466;DHT22;1747;48.884;9.160;2023-11-19T11:22:14;16.10;99.90
3466;DHT22;1747;48.884;9.160;2023-11-19T11:25:06;16.20;99.90
3466;DHT22;1747;48.884;9.160;2023-11-19T11:28:15;16.20;99.90
3466;DHT22;1747;48.884;9.160;2023-11-19T11:30:54;16.20;99.90
3466;DHT22;1747;48.884;9.160;2023-11-19T11:33:34;16.30;99.90
3466;DHT22;1747;48.884;9.160;2023-11-19T11:36:13;16.50;99.90
3466;DHT22;1747;48.884;9.160;2023-11-19T11:38:43;16.70;99.90
3466;DHT22;1747;48.884;9.160;2023-11-19T11:41:17;16.80;99.90
3466;DHT22;1747;48.884;9.160;2023-11-19T11:43:49;16.90;99.90
3466;DHT22;1747;48.884;9.160;2023-11-19T11:46:53;17.10;99.90
3466;DHT22;1747;48.884;9.160;2023-11-19T11:49:27;17.30;99.90
3466;DHT22;1747;48.884;9.160;2023-11-19T11:52:03;17.40;99.90
3466;DHT22;1747;48.884;9.160;2023-11-19T11:54:31;17.40;99.90
3466;DHT22;1747;48.884;9.160;2023-11-19T11:59:25;17.50;99.90
3466;DHT22;1747;48.884;9.160;2023-11-19T12:01:59;17.40;99.90
3466;DHT22;1747;48.884;9.160;2023-11-19T12:04:26;17.20;99.90
3466;DHT22;1747;48.884;9.160;2023-11-19T12:07:05;17.10;99.90
3466;DHT22;1747;48.884;9.160;2023-11-19T12:09:32;17.10;99.90
3466;DHT22;1747;48.884;9.160;2023-11-19T12:12:19;17.20;99.90
3466;DHT22;1747;48.884;9.160;2023-11-19T12:15:07;17.60;99.90
3466;DHT22;1747;48.884;9.160;2023-11-19T12:17:37;18.10;99.90
3466;DHT22;1747;48.884;9.160;2023-11-19T12:20:11;18.10;99.90
3466;DHT22;1747;48.884;9.160;2023-11-19T12:22:40;18.00;99.90
3466;DHT22;1747;48.884;9.160;2023-11-19T12:25:08;17.90;99.90
3466;DHT22;1747;48.884;9.160;2023-11-19T12:27:35;17.70;99.90
3466;DHT22;1747;48.884;9.160;2023-11-19T12:30:03;17.80;99.90
3466;DHT22;1747;48.884;9.160;2023-11-19T12:32:48;18.10;99.90
3466;DHT22;1747;48.884;9.160;2023-11-19T12:35:15;18.50;99.90
3466;DHT22;1747;48.884;9.160;2023-11-19T12:37:49;18.90;99.90
3466;DHT22;1747;48.884;9.160;2023-11-19T12:40:18;19.30;99.90
3466;DHT22;1747;48.884;9.160;2023-11-19T12:42:53;19.70;99.90
3466;DHT22;1747;48.884;9.160;2023-11-19T12:45:20;20.00;99.90
3466;DHT22;1747;48.884;9.160;2023-11-19T12:47:49;20.30;99.90
3466;DHT22;1747;48.884;9.160;2023-11-19T12:50:18;20.50;99.90
3466;DHT22;1747;48.884;9.160;2023-11-19T12:53:00;20.70;99.90
3466;DHT22;1747;48.884;9.160;2023-11-19T12:55:28;20.80;99.90
3466;DHT22;1747;48.884;9.160;2023-11-19T12:57:56;21.00;99.90
3466;DHT22;1747;48.884;9.160;2023-11-19T13:00:26;21.00;99.90
3466;DHT22;1747;48.884;9.160;2023-11-19T13:02:54;20.90;99.90
3466;DHT22;1747;48.884;9.160;2023-11-19T13:05:24;20.60;99.90
3466;DHT22;1747;48.884;9.160;2023-11-19T13:10:59;19.90;99.90
3466;DHT22;1747;48.884;9.160;2023-11-19T13:13:26;19.70;99.90
3466;DHT22;1747;48.884;9.160;2023-11-19T13:15:53;19.60;99.90
3466;DHT22;1747;48.884;9.160;2023-11-19T13:18:29;19.40;99.90
3466;DHT22;1747;48.884;9.160;2023-11-19T13:20:56;19.10;99.90
3466;DHT22;1747;48.884;9.160;2023-11-19T13:23:23;19.10;99.90
3466;DHT22;1747;48.884;9.160;2023-11-19T13:25:50;19.10;99.90
3466;DHT22;1747;48.884;9.160;2023-11-19T13:28:19;19.20;99.90
3466;DHT22;1747;48.884;9.160;2023-11-19T13:30:45;19.20;99.90
3466;DHT22;1747;48.884;9.160;2023-11-19T13:33:12;19.10;99.90
3466;DHT22;1747;48.884;9.160;2023-11-19T13:35:40;19.10;99.90
3466;DHT22;1747;48.884;9.160;2023-11-19T13:38:07;19.10;99.90
3466;DHT22;1747;48.884;9.160;2023-11-19T13:40:35;19.10;99.90
3466;DHT22;1747;48.884;9.160;2023-11-19T13:43:02;18.70;99.90
3466;DHT22;1747;48.884;9.160;2023-11-19T13:45:30;18.50;99.90
3466;DHT22;1747;48.884;9.160;2023-11-19T13:48:00;18.30;99.90
3466;DHT22;1747;48.884;9.160;2023-11-19T13:50:27;18.10;99.90
3466;DHT22;1747;48.884;9.160;2023-11-19T13:52:54;18.10;99.90
3466;DHT22;1747;48.884;9.160;2023-11-19T13:55:21;18.20;99.90
3466;DHT22;1747;48.884;9.160;2023-11-19T13:57:50;18.20;99.90
3466;DHT22;1747;48.884;9.160;2023-11-19T14:00:17;18.00;99.90
3466;DHT22;1747;48.884;9.160;2023-11-19T14:02:46;17.80;99.90
3466;DHT22;1747;48.884;9.160;2023-11-19T14:05:14;17.60;99.90
3466;DHT22;1747;48.884;9.160;2023-11-19T14:07:43;17.40;99.90
3466;DHT22;1747;48.884;9.160;2023-11-19T14:10:11;17.30;99.90
3466;DHT22;1747;48.884;9.160;2023-11-19T14:12:38;17.20;99.90
3466;DHT22;1747;48.884;9.160;2023-11-19T14:15:06;17.10;99.90
3466;DHT22;1747;48.884;9.160;2023-11-19T14:17:34;16.90;99.90
3466;DHT22;1747;48.884;9.160;2023-11-19T14:20:03;16.70;99.90
3466;DHT22;1747;48.884;9.160;2023-11-19T14:22:38;16.60;99.90
3466;DHT22;1747;48.884;9.160;2023-11-19T14:25:05;16.60;99.90
3466;DHT22;1747;48.884;9.160;2023-11-19T14:27:35;16.50;99.90
3466;DHT22;1747;48.884;9.160;2023-11-19T14:30:02;16.50;99.90
3466;DHT22;1747;48.884;9.160;2023-11-19T14:32:29;16.40;99.90
3466;DHT22;1747;48.884;9.160;2023-11-19T14:34:56;16.30;99.90
3466;DHT22;1747;48.884;9.160;2023-11-19T14:37:24;16.20;99.90
3466;DHT22;1747;48.884;9.160;2023-11-19T14:39:51;16.20;99.90
3466;DHT22;1747;48.884;9.160;2023-11-19T14:42:18;16.20;99.90
3466;DHT22;1747;48.884;9.160;2023-11-19T14:44:45;16.20;99.90
3466;DHT22;1747;48.884;9.160;2023-11-19T14:47:11;16.20;99.90
3466;DHT22;1747;48.884;9.160;2023-11-19T14:49:38;16.10;99.90
3466;DHT22;1747;48.884;9.160;2023-11-19T14:52:05;16.00;99.90
3466;DHT22;1747;48.884;9.160;2023-11-19T14:54:34;16.00;99.90
3466;DHT22;1747;48.884;9.160;2023-11-19T14:57:01;15.90;99.90
3466;DHT22;1747;48.884;9.160;2023-11-19T14:59:28;15.90;99.90
3466;DHT22;1747;48.884;9.160;2023-11-19T15:01:55;15.80;99.90
3466;DHT22;1747;48.884;9.160;2023-11-19T15:04:22;15.90;99.90
3466;DHT22;1747;48.884;9.160;2023-11-19T15:06:49;15.90;99.90
3466;DHT22;1747;48.884;9.160;2023-11-19T15:09:16;15.90;99.90
3466;DHT22;1747;48.884;9.160;2023-11-19T15:11:45;15.80;99.90
3466;DHT22;1747;48.884;9.160;2023-11-19T15:14:12;15.80;99.90
3466;DHT22;1747;48.884;9.160;2023-11-19T15:16:40;15.80;99.90
3466;DHT22;1747;48.884;9.160;2023-11-19T15:19:07;15.70;99.90
3466;DHT22;1747;48.884;9.160;2023-11-19T15:21:34;15.70;99.90
3466;DHT22;1747;48.884;9.160;2023-11-19T15:24:01;15.50;99.90
3466;DHT22;1747;48.884;9.160;2023-11-19T15:26:30;15.40;99.90
3466;DHT22;1747;48.884;9.160;2023-11-19T15:28:58;15.30;99.90
3466;DHT22;1747;48.884;9.160;2023-11-19T15:31:25;15.30;99.90
3466;DHT22;1747;48.884;9.160;2023-11-19T15:33:52;15.20;99.90
3466;DHT22;1747;48.884;9.160;2023-11-19T15:36:19;15.20;99.90
3466;DHT22;1747;48.884;9.160;2023-11-19T15:38:46;15.20;99.90
3466;DHT22;1747;48.884;9.160;2023-11-19T15:41:14;15.10;99.90
3466;DHT22;1747;48.884;9.160;2023-11-19T15:43:40;15.00;99.90
3466;DHT22;1747;48.884;9.160;2023-11-19T15:46:09;15.00;99.90
3466;DHT22;1747;48.884;9.160;2023-11-19T15:48:37;14.90;99.90
3466;DHT22;1747;48.884;9.160;2023-11-19T15:51:04;14.90;99.90
3466;DHT22;1747;48.884;9.160;2023-11-19T15:53:31;14.80;99.90
3466;DHT22;1747;48.884;9.160;2023-11-19T15:55:58;14.70;99.90
3466;DHT22;1747;48.884;9.160;2023-11-19T15:58:25;14.70;99.90
3466;DHT22;1747;48.884;9.160;2023-11-19T16:00:53;14.70;99.90
3466;DHT22;1747;48.884;9.160;2023-11-19T16:03:22;14.60;99.90
3466;DHT22;1747;48.884;9.160;2023-11-19T16:05:49;14.70;99.90
3466;DHT22;1747;48.884;9.160;2023-11-19T16:08:25;14.60;99.90
3466;DHT22;1747;48.884;9.160;2023-11-19T16:10:53;14.60;99.90
3466;DHT22;1747;48.884;9.160;2023-11-19T16:13:20;14.60;99.90
3466;DHT22;1747;48.884;9.160;2023-11-19T16:15:48;14.40;99.90
3466;DHT22;1747;48.884;9.160;2023-11-19T16:27:03;14.30;99.90
3466;DHT22;1747;48.884;9.160;2023-11-19T16:29:30;14.20;99.90
3466;DHT22;1747;48.884;9.160;2023-11-19T16:31:57;14.30;99.90